Time;durP1;ratioP1;P1;durP2;ratioP2;P2;SDS_P1;SDS_P2;PMS_P1;PMS_P2;Temp;Humidity;BMP_temperature;BMP_pressure;BME280_temperature;BME280_humidity;BME280_pressure;Samples;Min_cycle;Max_cycle;Signal;HPM_P1;HPM_P2
2022/10/05 00:01:25;;;;;;;11.23;5.03;;;;;;;;;;5080735;28;20470;-83
2022/10/05 00:04:01;;;;;;;9.80;5.20;;;;;;;;;;5078123;28;20591;-83
2022/10/05 00:06:34;;;;;;;11.95;5.28;;;;;;;;;;5091539;28;20414;-82
2022/10/05 00:09:10;;;;;;;10.38;5.30;;;;;;;;;;5071827;28;20754;-83
2022/10/05 00:11:43;;;;;;;10.48;5.63;;;;;;;;;;5077911;28;20794;-83
2022/10/05 00:14:17;;;;;;;11.55;5.30;;;;;;;;;;5079655;28;20420;-83
2022/10/05 00:16:51;;;;;;;12.98;5.45;;;;;;;;;;5080831;28;20796;-82
2022/10/05 00:19:28;;;;;;;11.30;5.20;;;;;;;;;;5082143;28;20437;-83
2022/10/05 00:22:06;;;;;;;13.20;5.80;;;;;;;;;;5083592;28;20430;-83
2022/10/05 00:24:38;;;;;;;13.83;5.33;;;;;;;;;;5079437;28;20512;-82
2022/10/05 00:27:12;;;;;;;14.20;5.63;;;;;;;;;;5078692;28;20432;-83
2022/10/05 00:29:45;;;;;;;11.97;5.67;;;;;;;;;;5081526;28;20875;-82
2022/10/05 00:32:19;;;;;;;11.15;5.60;;;;;;;;;;5084992;28;20422;-83
2022/10/05 00:34:54;;;;;;;13.93;5.80;;;;;;;;;;5084015;28;20436;-83
2022/10/05 00:37:26;;;;;;;11.80;5.47;;;;;;;;;;5079506;28;20426;-82
2022/10/05 00:39:59;;;;;;;11.32;5.60;;;;;;;;;;5080919;28;20421;-83
2022/10/05 00:42:39;;;;;;;14.05;5.70;;;;;;;;;;5085302;28;20902;-83
2022/10/05 00:45:13;;;;;;;12.10;5.45;;;;;;;;;;5083177;28;20424;-83
2022/10/05 00:47:54;;;;;;;12.70;5.30;;;;;;;;;;5079224;28;20426;-83
2022/10/05 00:50:34;;;;;;;15.02;5.88;;;;;;;;;;5085236;28;20450;-83
2022/10/05 00:53:08;;;;;;;12.57;5.38;;;;;;;;;;5077769;28;20971;-83
2022/10/05 00:55:47;;;;;;;10.13;5.53;;;;;;;;;;5079185;28;20435;-83
2022/10/05 00:58:19;;;;;;;12.77;5.33;;;;;;;;;;5073428;28;20438;-83
2022/10/05 01:00:50;;;;;;;11.67;5.37;;;;;;;;;;5089854;28;20754;-82
2022/10/05 01:03:25;;;;;;;11.53;5.20;;;;;;;;;;5081912;28;20410;-83
2022/10/05 01:06:02;;;;;;;11.82;5.50;;;;;;;;;;5090163;28;20427;-82
2022/10/05 01:08:40;;;;;;;11.03;5.07;;;;;;;;;;5078176;28;20535;-83
2022/10/05 01:11:18;;;;;;;12.55;5.22;;;;;;;;;;5080844;28;20424;-83
2022/10/05 01:13:51;;;;;;;10.60;5.18;;;;;;;;;;5082773;28;20434;-83
2022/10/05 01:16:26;;;;;;;11.95;5.03;;;;;;;;;;5087049;28;20423;-83
2022/10/05 01:18:58;;;;;;;12.90;5.22;;;;;;;;;;5083487;28;20432;-82
2022/10/05 01:21:28;;;;;;;11.25;4.90;;;;;;;;;;5087228;28;20972;-83
2022/10/05 01:24:21;;;;;;;10.65;5.00;;;;;;;;;;5083191;28;20418;-83
2022/10/05 01:27:12;;;;;;;10.15;5.13;;;;;;;;;;5083334;28;20430;-83
2022/10/05 01:29:49;;;;;;;13.10;5.53;;;;;;;;;;5067479;28;20439;-83
2022/10/05 01:32:20;;;;;;;10.65;5.05;;;;;;;;;;5081702;28;20431;-83
2022/10/05 01:34:50;;;;;;;11.95;5.55;;;;;;;;;;5088684;28;20435;-82
2022/10/05 01:37:26;;;;;;;12.02;5.20;;;;;;;;;;5087840;28;20430;-83
2022/10/05 01:40:06;;;;;;;10.90;5.22;;;;;;;;;;5077315;28;20415;-83
2022/10/05 01:42:44;;;;;;;10.23;5.05;;;;;;;;;;5082201;28;20410;-83
2022/10/05 01:45:24;;;;;;;11.48;4.93;;;;;;;;;;5080003;28;20427;-83
2022/10/05 01:47:58;;;;;;;11.85;5.20;;;;;;;;;;5083221;28;20419;-83
2022/10/05 01:50:30;;;;;;;10.85;4.95;;;;;;;;;;5079341;28;20431;-82
2022/10/05 01:53:07;;;;;;;9.77;5.20;;;;;;;;;;5080811;28;20451;-83
2022/10/05 01:55:45;;;;;;;10.70;5.00;;;;;;;;;;5088674;28;20423;-82
2022/10/05 01:58:19;;;;;;;10.40;4.55;;;;;;;;;;5083312;28;20414;-83
2022/10/05 02:00:52;;;;;;;9.55;4.63;;;;;;;;;;5086693;28;20770;-83
2022/10/05 02:03:28;;;;;;;14.20;5.15;;;;;;;;;;5087482;28;20431;-83
2022/10/05 02:05:58;;;;;;;12.25;5.28;;;;;;;;;;5074411;28;22552;-83
2022/10/05 02:08:29;;;;;;;12.52;5.35;;;;;;;;;;5080068;28;20415;-83
2022/10/05 02:11:05;;;;;;;11.63;5.18;;;;;;;;;;5078962;28;20437;-83
2022/10/05 02:13:40;;;;;;;11.48;5.05;;;;;;;;;;5075598;28;20423;-82
2022/10/05 02:16:16;;;;;;;10.93;5.22;;;;;;;;;;5084660;28;20440;-83
2022/10/05 02:18:52;;;;;;;10.65;4.78;;;;;;;;;;5098469;28;20413;-83
2022/10/05 02:21:25;;;;;;;9.10;4.78;;;;;;;;;;5089124;28;21218;-83
2022/10/05 02:24:02;;;;;;;10.37;4.63;;;;;;;;;;5081936;28;20957;-83
2022/10/05 02:26:31;;;;;;;12.90;4.80;;;;;;;;;;5088703;28;20843;-83
2022/10/05 02:29:05;;;;;;;10.38;4.55;;;;;;;;;;5077364;28;20443;-83
2022/10/05 02:31:44;;;;;;;9.82;4.50;;;;;;;;;;5084910;28;20414;-82
2022/10/05 02:34:24;;;;;;;10.52;4.85;;;;;;;;;;5081614;28;20427;-83
2022/10/05 02:37:17;;;;;;;14.97;4.83;;;;;;;;;;5080772;28;20486;-82
2022/10/05 02:39:52;;;;;;;11.25;4.80;;;;;;;;;;5078744;28;20446;-83
2022/10/05 02:42:30;;;;;;;9.75;4.70;;;;;;;;;;5083905;28;20429;-82
2022/10/05 02:45:03;;;;;;;12.13;5.07;;;;;;;;;;5078620;28;20754;-83
2022/10/05 02:47:41;;;;;;;12.70;4.80;;;;;;;;;;5082854;28;20431;-83
2022/10/05 02:50:14;;;;;;;10.38;4.80;;;;;;;;;;5082637;28;20422;-83
2022/10/05 02:52:51;;;;;;;10.13;4.87;;;;;;;;;;5088899;28;20746;-83
2022/10/05 02:55:22;;;;;;;9.90;4.65;;;;;;;;;;5077386;28;20427;-83
2022/10/05 02:57:59;;;;;;;10.15;4.72;;;;;;;;;;5085549;28;20460;-82
2022/10/05 03:00:34;;;;;;;12.13;4.43;;;;;;;;;;5083926;28;20428;-83
2022/10/05 03:03:07;;;;;;;13.27;4.70;;;;;;;;;;5082699;28;20414;-82
2022/10/05 03:05:43;;;;;;;11.80;4.23;;;;;;;;;;5070445;28;20496;-82
2022/10/05 03:08:15;;;;;;;9.43;4.60;;;;;;;;;;5096847;28;20415;-82
2022/10/05 03:10:53;;;;;;;13.00;4.50;;;;;;;;;;5081360;28;20425;-82
2022/10/05 03:13:33;;;;;;;11.43;4.60;;;;;;;;;;5085290;28;20433;-83
2022/10/05 03:16:14;;;;;;;9.75;4.63;;;;;;;;;;5082265;28;20430;-83
2022/10/05 03:18:51;;;;;;;13.35;4.72;;;;;;;;;;5083841;28;20417;-82
2022/10/05 03:21:25;;;;;;;10.55;4.65;;;;;;;;;;5075875;28;20432;-83
2022/10/05 03:24:00;;;;;;;11.07;4.68;;;;;;;;;;5083071;28;20418;-83
2022/10/05 03:26:37;;;;;;;12.05;4.63;;;;;;;;;;5079126;28;20402;-83
2022/10/05 03:29:09;;;;;;;10.45;4.57;;;;;;;;;;5090761;28;20427;-83
2022/10/05 03:31:45;;;;;;;10.65;4.60;;;;;;;;;;5075971;28;20422;-84
2022/10/05 03:34:16;;;;;;;9.70;4.78;;;;;;;;;;5076470;28;20422;-84
2022/10/05 03:36:48;;;;;;;11.60;4.72;;;;;;;;;;5091167;28;20430;-84
2022/10/05 03:39:23;;;;;;;10.25;4.95;;;;;;;;;;5073848;28;20422;-83
2022/10/05 03:41:54;;;;;;;11.02;5.03;;;;;;;;;;5077645;28;20441;-84
2022/10/05 03:44:42;;;;;;;10.25;4.93;;;;;;;;;;5076211;28;20442;-83
2022/10/05 03:47:21;;;;;;;10.73;4.60;;;;;;;;;;5093608;28;20410;-83
2022/10/05 03:50:02;;;;;;;9.55;4.50;;;;;;;;;;5080924;28;20437;-83
2022/10/05 03:52:38;;;;;;;15.57;5.03;;;;;;;;;;5076615;28;20532;-84
2022/10/05 03:55:16;;;;;;;9.18;4.78;;;;;;;;;;5084997;28;20418;-83
2022/10/05 03:57:51;;;;;;;9.13;4.60;;;;;;;;;;5081187;28;20433;-83
2022/10/05 04:00:22;;;;;;;8.68;4.80;;;;;;;;;;5076653;28;20434;-83
2022/10/05 04:03:03;;;;;;;9.48;4.75;;;;;;;;;;5083867;28;20436;-83
2022/10/05 04:05:43;;;;;;;9.85;4.70;;;;;;;;;;5091596;28;20402;-83
2022/10/05 04:08:12;;;;;;;14.40;5.00;;;;;;;;;;5082949;28;20436;-84
2022/10/05 04:10:42;;;;;;;8.73;4.53;;;;;;;;;;5085351;28;20425;-83
2022/10/05 04:13:20;;;;;;;11.48;5.00;;;;;;;;;;5096353;27;20423;-83
2022/10/05 04:15:51;;;;;;;11.20;4.90;;;;;;;;;;5085233;28;20427;-83
2022/10/05 04:18:26;;;;;;;12.80;4.82;;;;;;;;;;5085426;28;20425;-83
2022/10/05 04:21:04;;;;;;;10.43;4.75;;;;;;;;;;5077725;28;20414;-83
2022/10/05 04:23:44;;;;;;;10.77;4.97;;;;;;;;;;5085477;28;20428;-83
2022/10/05 04:26:15;;;;;;;10.38;4.85;;;;;;;;;;5086241;28;20906;-83
2022/10/05 04:28:52;;;;;;;11.65;4.88;;;;;;;;;;5085499;28;20425;-83
2022/10/05 04:31:33;;;;;;;9.98;4.85;;;;;;;;;;5087438;28;20791;-84
2022/10/05 04:34:12;;;;;;;12.70;4.90;;;;;;;;;;5076348;28;20622;-83
2022/10/05 04:36:50;;;;;;;11.90;4.80;;;;;;;;;;5072694;28;20432;-83
2022/10/05 04:39:26;;;;;;;10.27;4.93;;;;;;;;;;5092347;28;20441;-83
2022/10/05 04:42:00;;;;;;;8.80;4.63;;;;;;;;;;5084275;28;20459;-83
2022/10/05 04:44:35;;;;;;;10.77;4.82;;;;;;;;;;5086493;28;20904;-83
2022/10/05 04:47:20;;;;;;;10.93;5.13;;;;;;;;;;5081556;28;20428;-83
2022/10/05 04:50:00;;;;;;;11.85;5.38;;;;;;;;;;5095057;28;20447;-83
2022/10/05 04:52:34;;;;;;;12.15;5.60;;;;;;;;;;5089287;28;20422;-82
2022/10/05 04:55:11;;;;;;;12.73;5.30;;;;;;;;;;5105809;27;20446;-83
2022/10/05 04:57:48;;;;;;;9.40;5.05;;;;;;;;;;5084380;28;20418;-83
2022/10/05 05:00:22;;;;;;;9.70;4.85;;;;;;;;;;5082930;28;20442;-83
2022/10/05 05:03:15;;;;;;;11.57;5.57;;;;;;;;;;5077256;28;20420;-83
2022/10/05 05:05:46;;;;;;;12.80;6.18;;;;;;;;;;5086729;28;20759;-84
2022/10/05 05:08:28;;;;;;;12.87;6.30;;;;;;;;;;5087153;28;20425;-83
2022/10/05 05:11:10;;;;;;;12.25;6.57;;;;;;;;;;5085235;28;20430;-83
2022/10/05 05:13:44;;;;;;;11.07;5.70;;;;;;;;;;5079240;28;20418;-84
2022/10/05 05:16:20;;;;;;;12.77;5.87;;;;;;;;;;5088734;28;20422;-83
2022/10/05 05:19:03;;;;;;;18.27;6.07;;;;;;;;;;5079151;28;20780;-84
2022/10/05 05:21:37;;;;;;;11.15;5.45;;;;;;;;;;5076138;28;20427;-83
2022/10/05 05:24:09;;;;;;;10.37;5.23;;;;;;;;;;5083624;28;20506;-84
2022/10/05 05:26:45;;;;;;;11.82;5.65;;;;;;;;;;5083703;28;20427;-83
2022/10/05 05:29:21;;;;;;;11.13;5.72;;;;;;;;;;5079958;28;20423;-83
2022/10/05 05:31:53;;;;;;;12.23;5.90;;;;;;;;;;5078061;28;20759;-83
2022/10/05 05:34:31;;;;;;;13.55;6.22;;;;;;;;;;5087179;28;20429;-84
2022/10/05 05:37:07;;;;;;;12.98;6.03;;;;;;;;;;5078393;28;20416;-83
2022/10/05 05:39:48;;;;;;;11.32;5.82;;;;;;;;;;5085013;28;20429;-83
2022/10/05 05:42:27;;;;;;;14.03;5.97;;;;;;;;;;5075823;28;20823;-83
2022/10/05 05:45:04;;;;;;;12.25;5.75;;;;;;;;;;5084638;28;20419;-84
2022/10/05 05:47:38;;;;;;;12.18;6.30;;;;;;;;;;5081325;28;20475;-84
2022/10/05 05:50:24;;;;;;;11.48;5.75;;;;;;;;;;5083815;28;21061;-84
2022/10/05 05:53:02;;;;;;;10.57;5.57;;;;;;;;;;5083999;28;20517;-84
2022/10/05 05:55:39;;;;;;;13.35;6.03;;;;;;;;;;5081557;28;20421;-83
2022/10/05 05:58:17;;;;;;;10.75;5.63;;;;;;;;;;5077512;28;20910;-86
2022/10/05 06:00:49;;;;;;;12.95;6.28;;;;;;;;;;5080675;28;20439;-83
2022/10/05 06:03:24;;;;;;;13.75;6.00;;;;;;;;;;5077322;28;21091;-84
2022/10/05 06:05:59;;;;;;;12.38;6.03;;;;;;;;;;5090063;28;20769;-83
2022/10/05 06:08:35;;;;;;;13.70;6.07;;;;;;;;;;5074339;28;20432;-83
2022/10/05 06:11:17;;;;;;;11.63;5.93;;;;;;;;;;5076184;28;20426;-83
2022/10/05 06:13:46;;;;;;;13.15;5.60;;;;;;;;;;5077610;28;20788;-83
2022/10/05 06:16:19;;;;;;;11.80;6.00;;;;;;;;;;5081125;28;20429;-82
2022/10/05 06:18:50;;;;;;;14.40;5.97;;;;;;;;;;5080443;28;20430;-84
2022/10/05 06:21:21;;;;;;;11.27;5.70;;;;;;;;;;5078872;28;20416;-83
2022/10/05 06:23:52;;;;;;;9.85;5.47;;;;;;;;;;5094321;28;20434;-83
2022/10/05 06:26:39;;;;;;;12.95;5.93;;;;;;;;;;5079433;28;20792;-84
2022/10/05 06:29:11;;;;;;;13.47;5.80;;;;;;;;;;5075242;28;20439;-83
2022/10/05 06:31:52;;;;;;;12.20;5.97;;;;;;;;;;5077203;28;20427;-83
2022/10/05 06:34:27;;;;;;;11.15;5.93;;;;;;;;;;5083056;28;20423;-85
2022/10/05 06:36:58;;;;;;;12.70;6.05;;;;;;;;;;5079420;28;20948;-87
2022/10/05 06:39:40;;;;;;;12.07;5.82;;;;;;;;;;5073755;28;20425;-86
2022/10/05 06:42:16;;;;;;;11.43;6.15;;;;;;;;;;5051444;28;20431;-85
2022/10/05 06:45:25;;;;;;;14.30;5.93;;;;;;;;;;5008912;28;21009;-85
2022/10/05 06:48:19;;;;;;;10.47;5.73;;;;;;;;;;5059372;28;20521;-84
2022/10/05 06:51:10;;;;;;;14.40;6.00;;;;;;;;;;5078063;28;21249;-85
2022/10/05 06:53:50;;;;;;;10.47;5.73;;;;;;;;;;5058090;28;20433;-82
2022/10/05 06:56:26;;;;;;;10.00;5.30;;;;;;;;;;5055991;28;21011;-86
2022/10/05 06:59:00;;;;;;;11.95;5.70;;;;;;;;;;5077425;27;20438;-84
2022/10/05 07:01:32;;;;;;;11.60;5.88;;;;;;;;;;5064889;28;20984;-84
2022/10/05 07:04:10;;;;;;;10.25;5.60;;;;;;;;;;5060541;28;20420;-84
2022/10/05 07:06:44;;;;;;;10.48;5.50;;;;;;;;;;5063337;28;20421;-85
2022/10/05 07:09:20;;;;;;;14.25;5.60;;;;;;;;;;5060559;28;21863;-85
2022/10/05 07:11:58;;;;;;;9.95;5.43;;;;;;;;;;5060386;28;20450;-85
2022/10/05 07:14:39;;;;;;;11.35;6.15;;;;;;;;;;5077255;28;20936;-86
2022/10/05 07:17:14;;;;;;;10.60;5.32;;;;;;;;;;5076561;28;20416;-86
2022/10/05 07:19:51;;;;;;;13.02;5.85;;;;;;;;;;5065947;28;20422;-85
2022/10/05 07:22:34;;;;;;;12.68;5.55;;;;;;;;;;5059193;28;20430;-83
2022/10/05 07:25:10;;;;;;;13.18;5.45;;;;;;;;;;5078005;28;20441;-85
2022/10/05 07:27:46;;;;;;;11.60;5.30;;;;;;;;;;5079888;28;20774;-84
2022/10/05 07:30:16;;;;;;;12.30;6.07;;;;;;;;;;5062686;28;20437;-83
2022/10/05 07:32:49;;;;;;;12.25;5.53;;;;;;;;;;5060862;28;20422;-85
2022/10/05 07:38:20;;;;;;;10.00;5.50;;;;;;;;;;5062060;28;20427;-83
2022/10/05 07:40:58;;;;;;;12.00;5.83;;;;;;;;;;5068868;28;20536;-84
2022/10/05 07:43:36;;;;;;;10.80;5.50;;;;;;;;;;5036702;28;20434;-84
2022/10/05 07:46:08;;;;;;;11.50;5.50;;;;;;;;;;5061593;28;20425;-85
2022/10/05 07:48:48;;;;;;;9.68;5.30;;;;;;;;;;5064779;28;20799;-84
2022/10/05 07:51:21;;;;;;;12.70;5.40;;;;;;;;;;5042864;28;21848;-84
2022/10/05 07:53:52;;;;;;;12.20;5.90;;;;;;;;;;5056174;28;20426;-84
2022/10/05 07:56:30;;;;;;;12.20;5.57;;;;;;;;;;5061243;28;20500;-85
2022/10/05 07:59:00;;;;;;;9.83;5.17;;;;;;;;;;5085410;28;20421;-85
2022/10/05 08:01:37;;;;;;;10.35;5.60;;;;;;;;;;5060364;28;21102;-85
2022/10/05 08:04:09;;;;;;;10.93;5.33;;;;;;;;;;5041277;28;20428;-85
2022/10/05 08:06:43;;;;;;;9.63;5.13;;;;;;;;;;5045292;28;20639;-84
2022/10/05 08:09:28;;;;;;;9.90;5.07;;;;;;;;;;5038854;28;20426;-84
2022/10/05 08:12:03;;;;;;;9.60;5.05;;;;;;;;;;5037942;28;20436;-83
2022/10/05 08:14:34;;;;;;;10.70;5.00;;;;;;;;;;5047237;28;20430;-84
2022/10/05 08:17:05;;;;;;;11.23;5.10;;;;;;;;;;5079870;28;20866;-85
2022/10/05 08:19:43;;;;;;;9.55;5.10;;;;;;;;;;5049421;28;20422;-85
2022/10/05 08:22:16;;;;;;;9.95;5.10;;;;;;;;;;5045475;28;20424;-86
2022/10/05 08:24:49;;;;;;;10.27;5.10;;;;;;;;;;5057637;28;20414;-86
2022/10/05 08:27:25;;;;;;;10.10;5.35;;;;;;;;;;5058470;28;20418;-88
2022/10/05 08:29:55;;;;;;;12.53;5.00;;;;;;;;;;5041176;28;20418;-85
2022/10/05 08:32:33;;;;;;;10.52;5.25;;;;;;;;;;5063139;28;20843;-83
2022/10/05 08:35:16;;;;;;;10.80;5.20;;;;;;;;;;5044224;28;20409;-84
2022/10/05 08:37:45;;;;;;;11.52;5.47;;;;;;;;;;5040897;28;20421;-84
2022/10/05 08:40:25;;;;;;;10.30;5.63;;;;;;;;;;5045021;28;20536;-84
2022/10/05 08:43:04;;;;;;;9.38;5.07;;;;;;;;;;5060806;28;20418;-84
2022/10/05 08:45:50;;;;;;;12.30;5.10;;;;;;;;;;5040928;28;20973;-85
2022/10/05 08:48:34;;;;;;;11.35;5.10;;;;;;;;;;5037468;28;20426;-84
2022/10/05 08:51:08;;;;;;;10.30;5.40;;;;;;;;;;5054546;28;20442;-85
2022/10/05 08:53:56;;;;;;;11.05;5.18;;;;;;;;;;5057854;28;20425;-87
2022/10/05 08:56:29;;;;;;;8.77;5.05;;;;;;;;;;5045582;28;20425;-85
2022/10/05 08:59:08;;;;;;;11.65;5.18;;;;;;;;;;5050269;28;20422;-84
2022/10/05 09:01:50;;;;;;;10.60;5.13;;;;;;;;;;5057338;28;20434;-87
2022/10/05 09:04:37;;;;;;;11.68;5.22;;;;;;;;;;5052113;28;20418;-82
2022/10/05 09:07:09;;;;;;;10.23;5.25;;;;;;;;;;5063147;28;20417;-85
2022/10/05 09:10:06;;;;;;;11.07;4.82;;;;;;;;;;5051261;28;20938;-83
2022/10/05 09:12:53;;;;;;;9.73;4.97;;;;;;;;;;5073655;28;20418;-85
2022/10/05 09:15:33;;;;;;;10.88;4.97;;;;;;;;;;5051824;28;20434;-84
2022/10/05 09:18:28;;;;;;;12.27;4.75;;;;;;;;;;5052888;28;20803;-84
2022/10/05 09:21:08;;;;;;;9.02;4.68;;;;;;;;;;4998848;28;20430;-84
2022/10/05 09:23:42;;;;;;;12.55;7.57;;;;;;;;;;5073134;28;20771;-84
2022/10/05 09:26:41;;;;;;;15.02;7.80;;;;;;;;;;5069378;28;20818;-86
2022/10/05 09:29:21;;;;;;;13.20;6.45;;;;;;;;;;5062364;28;20411;-84
2022/10/05 09:32:05;;;;;;;19.00;7.90;;;;;;;;;;5050046;28;20434;-85
2022/10/05 09:34:48;;;;;;;10.90;5.50;;;;;;;;;;5049982;28;20444;-84
2022/10/05 09:37:24;;;;;;;13.30;7.63;;;;;;;;;;5045728;28;20433;-85
2022/10/05 09:40:12;;;;;;;10.10;5.68;;;;;;;;;;5046543;28;20413;-83
2022/10/05 09:43:09;;;;;;;10.73;6.13;;;;;;;;;;5043217;28;20408;-84
2022/10/05 09:45:55;;;;;;;11.63;6.13;;;;;;;;;;5074470;28;20777;-85
2022/10/05 09:48:54;;;;;;;11.33;5.93;;;;;;;;;;5059286;28;20445;-84
2022/10/05 09:51:36;;;;;;;9.20;4.93;;;;;;;;;;5033679;28;20433;-86
2022/10/05 09:54:24;;;;;;;10.82;5.70;;;;;;;;;;5058318;28;20433;-85
2022/10/05 09:57:14;;;;;;;12.75;7.95;;;;;;;;;;5059762;28;20423;-85
2022/10/05 10:00:00;;;;;;;11.48;6.00;;;;;;;;;;5075546;27;20428;-84
2022/10/05 10:02:56;;;;;;;9.93;5.38;;;;;;;;;;5083870;28;20404;-86
2022/10/05 10:05:53;;;;;;;11.95;4.78;;;;;;;;;;5070288;28;20436;-87
2022/10/05 10:08:32;;;;;;;9.20;5.10;;;;;;;;;;5060585;28;20444;-84
2022/10/05 10:11:10;;;;;;;9.23;5.90;;;;;;;;;;5056322;28;20525;-83
2022/10/05 10:13:58;;;;;;;9.73;5.18;;;;;;;;;;5054074;28;20409;-84
2022/10/05 10:16:32;;;;;;;7.32;4.00;;;;;;;;;;5073263;28;20426;-84
2022/10/05 10:19:15;;;;;;;8.40;4.47;;;;;;;;;;5059210;28;20420;-84
2022/10/05 10:22:04;;;;;;;9.07;4.30;;;;;;;;;;5083360;27;20943;-86
2022/10/05 10:24:55;;;;;;;7.50;4.00;;;;;;;;;;5060217;28;20777;-84
2022/10/05 10:27:30;;;;;;;6.75;4.22;;;;;;;;;;5062238;28;20802;-85
2022/10/05 10:30:17;;;;;;;8.38;4.10;;;;;;;;;;5059531;28;20413;-83
2022/10/05 10:33:01;;;;;;;10.95;3.90;;;;;;;;;;5055244;28;20429;-85
2022/10/05 10:35:35;;;;;;;9.80;4.27;;;;;;;;;;5054636;28;20477;-84
2022/10/05 10:38:22;;;;;;;7.97;4.10;;;;;;;;;;5058378;28;20422;-85
2022/10/05 10:41:03;;;;;;;8.50;4.00;;;;;;;;;;5064574;28;20422;-87
2022/10/05 10:43:51;;;;;;;9.32;4.38;;;;;;;;;;5052248;28;21073;-86
2022/10/05 10:46:30;;;;;;;7.47;4.22;;;;;;;;;;5083385;28;20422;-85
2022/10/05 10:49:05;;;;;;;9.23;4.28;;;;;;;;;;5074289;28;20412;-86
2022/10/05 10:51:51;;;;;;;7.55;4.45;;;;;;;;;;5084303;28;20844;-85
2022/10/05 10:54:33;;;;;;;7.82;4.07;;;;;;;;;;5101478;28;20443;-87
2022/10/05 10:57:04;;;;;;;9.52;3.97;;;;;;;;;;5086737;28;20411;-85
2022/10/05 10:59:52;;;;;;;7.70;4.10;;;;;;;;;;5081821;28;20420;-86
2022/10/05 11:02:35;;;;;;;9.20;4.30;;;;;;;;;;5062829;28;20421;-85
2022/10/05 11:05:22;;;;;;;7.68;4.18;;;;;;;;;;5070881;28;20447;-85
2022/10/05 11:08:21;;;;;;;8.95;4.38;;;;;;;;;;5077113;28;20944;-87
2022/10/05 11:10:55;;;;;;;9.43;4.43;;;;;;;;;;5041291;28;20417;-86
2022/10/05 11:13:28;;;;;;;7.03;4.10;;;;;;;;;;5091324;28;20887;-86
2022/10/05 11:16:11;;;;;;;7.93;4.03;;;;;;;;;;5104358;28;20892;-85
2022/10/05 11:18:58;;;;;;;8.87;4.20;;;;;;;;;;5099958;28;21292;-86
2022/10/05 11:21:29;;;;;;;7.63;4.35;;;;;;;;;;5075903;28;20427;-87
2022/10/05 11:24:12;;;;;;;8.30;4.40;;;;;;;;;;5065008;28;20647;-87
2022/10/05 11:26:58;;;;;;;13.48;7.97;;;;;;;;;;5069029;28;20419;-86
2022/10/05 11:29:50;;;;;;;10.77;4.40;;;;;;;;;;5059377;28;20432;-86
2022/10/05 11:32:35;;;;;;;9.93;4.93;;;;;;;;;;5058761;28;21009;-85
2022/10/05 11:35:33;;;;;;;9.93;4.72;;;;;;;;;;5064999;28;20441;-85
2022/10/05 11:38:12;;;;;;;8.57;4.43;;;;;;;;;;5089535;28;20442;-88
2022/10/05 11:41:02;;;;;;;9.52;4.70;;;;;;;;;;5079244;28;20437;-86
2022/10/05 11:43:44;;;;;;;8.07;4.55;;;;;;;;;;5054331;28;20400;-87
2022/10/05 11:46:19;;;;;;;9.43;4.70;;;;;;;;;;5083883;28;20432;-86
2022/10/05 11:49:05;;;;;;;8.25;4.78;;;;;;;;;;5095477;28;20424;-86
2022/10/05 11:51:37;;;;;;;9.73;4.93;;;;;;;;;;5078549;28;20421;-87
2022/10/05 11:54:16;;;;;;;8.23;4.60;;;;;;;;;;5090745;28;20425;-86
2022/10/05 11:56:46;;;;;;;7.75;4.80;;;;;;;;;;5100537;28;20427;-88
2022/10/05 11:59:20;;;;;;;12.30;4.70;;;;;;;;;;5111584;28;20411;-85
2022/10/05 12:01:57;;;;;;;9.15;5.10;;;;;;;;;;5092800;28;20768;-86
2022/10/05 12:04:36;;;;;;;8.25;4.72;;;;;;;;;;5093467;28;20408;-87
2022/10/05 12:07:08;;;;;;;8.30;4.97;;;;;;;;;;5104814;28;20465;-85
2022/10/05 12:10:12;;;;;;;8.20;4.70;;;;;;;;;;5073800;28;20426;-87
2022/10/05 12:12:34;;;;;;;10.60;4.55;;;;;;;;;;5075767;28;20433;-86
2022/10/05 12:15:13;;;;;;;7.18;4.30;;;;;;;;;;5074161;28;20414;-87
2022/10/05 12:17:50;;;;;;;9.38;4.93;;;;;;;;;;5091108;28;20889;-86
2022/10/05 12:20:28;;;;;;;9.55;4.82;;;;;;;;;;5073859;28;20421;-87
2022/10/05 12:22:58;;;;;;;8.98;5.10;;;;;;;;;;5078078;28;20430;-87
2022/10/05 12:25:28;;;;;;;8.40;4.60;;;;;;;;;;5082656;28;20822;-87
2022/10/05 12:28:04;;;;;;;6.93;4.57;;;;;;;;;;5095522;28;20431;-86
2022/10/05 12:30:34;;;;;;;6.82;4.30;;;;;;;;;;5082699;28;20408;-86
2022/10/05 12:33:13;;;;;;;7.38;4.45;;;;;;;;;;5112655;28;20404;-88
2022/10/05 12:35:48;;;;;;;6.85;4.45;;;;;;;;;;5112798;28;20899;-85
2022/10/05 12:38:19;;;;;;;7.40;4.50;;;;;;;;;;5112767;28;20403;-87
2022/10/05 12:40:57;;;;;;;8.57;4.47;;;;;;;;;;5112064;28;20907;-86
2022/10/05 12:43:33;;;;;;;7.20;4.40;;;;;;;;;;5114500;28;20416;-85
2022/10/05 12:46:10;;;;;;;8.23;4.43;;;;;;;;;;5114545;28;20423;-87
2022/10/05 12:48:51;;;;;;;10.47;4.40;;;;;;;;;;5067593;28;21130;-87
2022/10/05 12:51:23;;;;;;;6.38;4.35;;;;;;;;;;5091211;28;21028;-89
2022/10/05 12:53:55;;;;;;;6.30;4.10;;;;;;;;;;5088561;28;20424;-87
2022/10/05 12:56:28;;;;;;;6.00;4.00;;;;;;;;;;5097272;28;20764;-87
2022/10/05 12:58:58;;;;;;;9.07;4.43;;;;;;;;;;5069360;28;20424;-85
2022/10/05 13:01:30;;;;;;;9.53;4.47;;;;;;;;;;5062458;28;20443;-85
2022/10/05 13:04:06;;;;;;;9.07;4.72;;;;;;;;;;5060527;28;20907;-87
2022/10/05 13:06:43;;;;;;;7.13;4.45;;;;;;;;;;5083658;28;20490;-86
2022/10/05 13:09:18;;;;;;;9.10;4.50;;;;;;;;;;5062440;28;20424;-89
2022/10/05 13:11:47;;;;;;;8.75;4.80;;;;;;;;;;5058375;28;20442;-87
2022/10/05 13:14:21;;;;;;;7.88;5.07;;;;;;;;;;5058753;28;20808;-86
2022/10/05 13:16:59;;;;;;;9.27;5.00;;;;;;;;;;5064730;28;20439;-87
2022/10/05 13:19:31;;;;;;;7.80;5.07;;;;;;;;;;5057711;28;21153;-88
2022/10/05 13:22:13;;;;;;;9.98;5.15;;;;;;;;;;5077937;28;20428;-87
2022/10/05 13:24:45;;;;;;;9.45;5.78;;;;;;;;;;5070911;28;20420;-88
2022/10/05 13:27:16;;;;;;;9.98;4.80;;;;;;;;;;5061419;28;20861;-86
2022/10/05 13:29:52;;;;;;;9.27;4.97;;;;;;;;;;5082948;28;20887;-88
2022/10/05 13:32:29;;;;;;;9.30;5.00;;;;;;;;;;5064056;28;20900;-88
2022/10/05 13:35:06;;;;;;;7.72;4.65;;;;;;;;;;5062712;28;20753;-88
2022/10/05 13:37:43;;;;;;;7.00;4.67;;;;;;;;;;5084491;28;20448;-87
2022/10/05 13:40:17;;;;;;;7.00;4.40;;;;;;;;;;5065423;28;20435;-89
2022/10/05 13:42:47;;;;;;;8.15;4.60;;;;;;;;;;5067391;28;20879;-89
2022/10/05 13:45:19;;;;;;;6.07;4.30;;;;;;;;;;5077511;28;20428;-87
2022/10/05 13:47:58;;;;;;;8.63;4.60;;;;;;;;;;5057894;28;21168;-87
2022/10/05 13:50:27;;;;;;;7.10;4.38;;;;;;;;;;5075785;28;21235;-87
2022/10/05 13:53:00;;;;;;;9.95;5.93;;;;;;;;;;5062350;28;20637;-86
2022/10/05 13:55:37;;;;;;;9.33;4.73;;;;;;;;;;5077279;28;20876;-84
2022/10/05 13:58:14;;;;;;;9.93;4.60;;;;;;;;;;5074802;28;20423;-85
2022/10/05 14:00:46;;;;;;;6.40;3.88;;;;;;;;;;5057552;28;20424;-86
2022/10/05 14:03:27;;;;;;;6.85;4.22;;;;;;;;;;5074129;28;21879;-84
2022/10/05 14:06:00;;;;;;;9.93;4.47;;;;;;;;;;5072643;28;20435;-86
2022/10/05 14:08:36;;;;;;;6.30;4.10;;;;;;;;;;5058214;28;20788;-85
2022/10/05 14:11:19;;;;;;;6.13;3.95;;;;;;;;;;5065672;28;20889;-88
2022/10/05 14:13:52;;;;;;;6.97;3.75;;;;;;;;;;5065498;28;20455;-85
2022/10/05 14:16:21;;;;;;;6.22;3.80;;;;;;;;;;5070878;28;20420;-86
2022/10/05 14:18:57;;;;;;;7.40;3.65;;;;;;;;;;5074403;28;20432;-86
2022/10/05 14:21:31;;;;;;;7.28;3.60;;;;;;;;;;5091917;28;20429;-87
2022/10/05 14:24:14;;;;;;;7.55;3.58;;;;;;;;;;5069926;28;21665;-88
2022/10/05 14:26:50;;;;;;;6.57;3.60;;;;;;;;;;5066544;28;20428;-85
2022/10/05 14:29:18;;;;;;;10.45;5.30;;;;;;;;;;5068162;28;20440;-85
2022/10/05 14:31:53;;;;;;;7.53;3.50;;;;;;;;;;5066604;28;20432;-85
2022/10/05 14:34:28;;;;;;;6.43;3.53;;;;;;;;;;5061402;28;20439;-84
2022/10/05 14:36:56;;;;;;;5.65;3.30;;;;;;;;;;5062887;28;20434;-84
2022/10/05 14:39:25;;;;;;;8.35;3.50;;;;;;;;;;5066644;28;20435;-84
2022/10/05 14:41:54;;;;;;;7.97;3.60;;;;;;;;;;5092794;28;20404;-85
2022/10/05 14:44:27;;;;;;;5.68;3.20;;;;;;;;;;5062452;28;20424;-87
2022/10/05 14:47:12;;;;;;;7.18;3.20;;;;;;;;;;5063705;28;21094;-84
2022/10/05 14:49:49;;;;;;;7.05;3.30;;;;;;;;;;5042976;28;21143;-85
2022/10/05 14:52:31;;;;;;;9.13;3.40;;;;;;;;;;5071174;28;21003;-85
2022/10/05 14:55:02;;;;;;;6.30;3.22;;;;;;;;;;5083319;28;20408;-84
2022/10/05 14:57:39;;;;;;;5.20;3.03;;;;;;;;;;5066456;28;21855;-84
2022/10/05 15:00:11;;;;;;;6.00;3.50;;;;;;;;;;5065529;28;21522;-84
2022/10/05 15:02:51;;;;;;;7.82;3.33;;;;;;;;;;5061816;28;21092;-86
2022/10/05 15:05:22;;;;;;;5.72;3.38;;;;;;;;;;5066196;28;20424;-85
2022/10/05 15:07:57;;;;;;;6.97;2.97;;;;;;;;;;5074926;28;20431;-83
2022/10/05 15:10:35;;;;;;;6.28;3.10;;;;;;;;;;5072722;28;20786;-85
2022/10/05 15:13:15;;;;;;;6.05;2.95;;;;;;;;;;5075005;28;20431;-85
2022/10/05 15:15:47;;;;;;;7.50;3.00;;;;;;;;;;5083929;28;20424;-86
2022/10/05 15:18:18;;;;;;;5.27;2.80;;;;;;;;;;5083498;28;20432;-85
2022/10/05 15:20:56;;;;;;;5.22;2.78;;;;;;;;;;5083039;28;20438;-86
2022/10/05 15:23:27;;;;;;;5.75;3.13;;;;;;;;;;5064076;28;20424;-84
2022/10/05 15:26:01;;;;;;;7.40;2.77;;;;;;;;;;5067621;28;20793;-85
2022/10/05 15:28:37;;;;;;;9.25;4.28;;;;;;;;;;5086586;28;21090;-84
2022/10/05 15:31:18;;;;;;;8.20;4.10;;;;;;;;;;5067307;28;20432;-85
2022/10/05 15:33:55;;;;;;;7.40;3.42;;;;;;;;;;5063859;28;21232;-84
2022/10/05 15:36:24;;;;;;;5.80;3.20;;;;;;;;;;5083336;28;20450;-84
2022/10/05 15:38:58;;;;;;;5.87;3.33;;;;;;;;;;5071595;28;20445;-83